Time;durP1;ratioP1;P1;durP2;ratioP2;P2;SDS_P1;SDS_P2;PMS_P1;PMS_P2;Temp;Humidity;BMP_temperature;BMP_pressure;BME280_temperature;BME280_humidity;BME280_pressure;Samples;Min_cycle;Max_cycle;Signal;HPM_P1;HPM_P2
2024/02/28 00:01:16;;;;;;;;;;;4.60;8.20;;;;;;5019277;28;20009;-85
2024/02/28 00:03:44;;;;;;;;;;;4.90;14.30;;;;;;5018329;28;20313;-85
2024/02/28 00:06:10;;;;;;;;;;;4.60;24.10;;;;;;5019563;28;19922;-85
2024/02/28 00:08:38;;;;;;;;;;;4.60;23.90;;;;;;5018470;28;19921;-85
2024/02/28 00:11:04;;;;;;;;;;;4.50;13.20;;;;;;5020102;28;19983;-85
2024/02/28 00:13:32;;;;;;;;;;;4.50;23.20;;;;;;5038206;28;19929;-85
2024/02/28 00:16:00;;;;;;;;;;;4.50;28.40;;;;;;5037389;28;19925;-85
2024/02/28 00:18:26;;;;;;;;;;;4.50;27.30;;;;;;5036733;28;19905;-83
2024/02/28 00:20:54;;;;;;;;;;;4.50;28.50;;;;;;5037089;28;19956;-85
2024/02/28 00:23:20;;;;;;;;;;;4.50;33.80;;;;;;5035267;28;19912;-83
2024/02/28 00:25:47;;;;;;;;;;;4.40;35.20;;;;;;5034675;28;19909;-84
2024/02/28 00:28:14;;;;;;;;;;;4.50;35.10;;;;;;5022015;28;20011;-84
2024/02/28 00:30:41;;;;;;;;;;;4.50;41.70;;;;;;5021039;28;19965;-85
2024/02/28 00:33:09;;;;;;;;;;;4.50;43.60;;;;;;5027451;28;20027;-84
2024/02/28 00:35:36;;;;;;;;;;;4.50;48.60;;;;;;5035087;28;19921;-84
2024/02/28 00:38:03;;;;;;;;;;;4.40;30.40;;;;;;5034113;28;19922;-84
2024/02/28 00:40:30;;;;;;;;;;;4.40;42.50;;;;;;5029844;28;19925;-85
2024/02/28 00:42:58;;;;;;;;;;;4.40;54.20;;;;;;5023346;28;19922;-85
2024/02/28 00:45:24;;;;;;;;;;;4.40;54.70;;;;;;5022583;28;19921;-85
2024/02/28 00:47:51;;;;;;;;;;;4.40;58.10;;;;;;5020693;28;19921;-85
2024/02/28 00:50:19;;;;;;;;;;;4.50;57.50;;;;;;5021903;28;19925;-85
2024/02/28 00:52:46;;;;;;;;;;;4.50;51.60;;;;;;5022212;28;19964;-85
2024/02/28 00:55:12;;;;;;;;;;;4.50;37.70;;;;;;5024013;28;19952;-84
2024/02/28 00:57:39;;;;;;;;;;;4.50;23.40;;;;;;5038167;28;19970;-84
2024/02/28 01:00:06;;;;;;;;;;;4.50;18.30;;;;;;5038249;28;19912;-85
2024/02/28 01:02:33;;;;;;;;;;;4.50;13.20;;;;;;5035002;28;19921;-85
2024/02/28 01:05:00;;;;;;;;;;;4.50;9.80;;;;;;5019417;28;19925;-85
2024/02/28 01:07:28;;;;;;;;;;;4.50;9.80;;;;;;5019221;28;19968;-85
2024/02/28 01:09:54;;;;;;;;;;;4.50;7.00;;;;;;5018523;28;20393;-85
2024/02/28 01:12:21;;;;;;;;;;;4.50;4.00;;;;;;5018376;28;20016;-85
2024/02/28 01:14:49;;;;;;;;;;;4.50;1.00;;;;;;5018724;28;20326;-85
2024/02/28 01:17:15;;;;;;;;;;;4.50;1.00;;;;;;5018782;28;19922;-85
2024/02/28 01:19:43;;;;;;;;;;;4.50;1.00;;;;;;5017917;28;20008;-84
2024/02/28 01:22:10;;;;;;;;;;;4.60;1.00;;;;;;5019600;28;19921;-85
2024/02/28 01:24:38;;;;;;;;;;;4.60;1.00;;;;;;5018559;28;19922;-85
2024/02/28 01:27:06;;;;;;;;;;;4.60;1.00;;;;;;5019229;28;19976;-85
2024/02/28 01:29:34;;;;;;;;;;;4.60;1.00;;;;;;5018551;28;19972;-85
2024/02/28 01:32:01;;;;;;;;;;;4.60;1.00;;;;;;5023132;28;19964;-84
2024/02/28 01:34:32;;;;;;;;;;;4.60;1.00;;;;;;5030659;28;19965;-85
2024/02/28 01:36:59;;;;;;;;;;;4.60;1.00;;;;;;5031548;28;19968;-85
2024/02/28 01:39:26;;;;;;;;;;;4.70;1.00;;;;;;5020807;28;19940;-85
2024/02/28 01:41:55;;;;;;;;;;;4.60;1.00;;;;;;5021648;28;19985;-85
2024/02/28 01:44:22;;;;;;;;;;;4.60;1.00;;;;;;5041433;28;19918;-84
2024/02/28 01:46:51;;;;;;;;;;;4.60;1.00;;;;;;5041884;28;19906;-84
2024/02/28 01:49:19;;;;;;;;;;;4.60;1.00;;;;;;5041510;28;19987;-86
2024/02/28 01:51:48;;;;;;;;;;;4.60;1.00;;;;;;5031428;28;19921;-85
2024/02/28 01:54:16;;;;;;;;;;;4.50;1.00;;;;;;5021931;28;19922;-85
2024/02/28 01:56:42;;;;;;;;;;;4.60;1.00;;;;;;5021324;28;19960;-85
2024/02/28 01:59:13;;;;;;;;;;;4.60;1.00;;;;;;5022924;28;19921;-85
2024/02/28 02:01:39;;;;;;;;;;;4.60;1.00;;;;;;5022007;28;19922;-85
2024/02/28 02:04:06;;;;;;;;;;;4.60;1.00;;;;;;5021340;28;19965;-85
2024/02/28 02:06:59;;;;;;;;;;;;;;;;;;;;;
2024/02/28 02:09:41;;;;;;;;;;;4.50;1.00;;;;;;5022839;28;20358;-89
2024/02/28 02:12:19;;;;;;;;;;;4.50;1.00;;;;;;5023237;28;19925;-88
2024/02/28 02:18:16;;;;;;;;;;;4.50;1.00;;;;;;4986536;28;19924;-88
2024/02/28 02:23:54;;;;;;;;;;;4.50;1.00;;;;;;4994226;28;19959;-87
2024/02/28 02:29:57;;;;;;;;;;;4.60;1.00;;;;;;4978827;28;19949;-88
2024/02/28 02:32:42;;;;;;;;;;;4.70;1.00;;;;;;5036475;28;19921;-87
2024/02/28 02:44:31;;;;;;;;;;;;;;;;;;;;;
2024/02/28 03:20:40;;;;;;;;;;;4.40;1.00;;;;;;4990565;22;19921;-88
2024/02/28 03:23:06;;;;;;;;;;;4.20;1.00;;;;;;5058235;28;19924;-86
2024/02/28 03:25:33;;;;;;;;;;;4.20;1.00;;;;;;5058974;28;19911;-88
2024/02/28 03:28:01;;;;;;;;;;;4.10;1.00;;;;;;5051957;28;19925;-86
2024/02/28 03:30:27;;;;;;;;;;;4.10;1.00;;;;;;5048305;28;19959;-86
2024/02/28 03:32:54;;;;;;;;;;;4.30;1.00;;;;;;5049256;28;19949;-87
2024/02/28 03:35:21;;;;;;;;;;;4.20;1.00;;;;;;5051357;28;19993;-88
2024/02/28 03:37:49;;;;;;;;;;;4.30;1.00;;;;;;5053025;28;19928;-86
2024/02/28 03:40:16;;;;;;;;;;;4.20;1.00;;;;;;5048727;28;19921;-87
2024/02/28 03:42:42;;;;;;;;;;;4.20;1.00;;;;;;5047295;28;19928;-87
2024/02/28 03:45:09;;;;;;;;;;;4.10;1.00;;;;;;5045589;28;19928;-88
2024/02/28 03:47:36;;;;;;;;;;;4.20;1.00;;;;;;5051434;28;20104;-88
2024/02/28 03:50:03;;;;;;;;;;;4.10;1.00;;;;;;5049047;28;19928;-87
2024/02/28 03:52:30;;;;;;;;;;;4.20;1.00;;;;;;5044013;28;19921;-88
2024/02/28 03:54:58;;;;;;;;;;;4.00;1.00;;;;;;5050987;28;20282;-88
2024/02/28 03:57:25;;;;;;;;;;;4.20;1.00;;;;;;5050061;28;19921;-86
2024/02/28 03:59:52;;;;;;;;;;;4.20;1.00;;;;;;5051289;28;20437;-86
2024/02/28 04:02:19;;;;;;;;;;;4.20;1.00;;;;;;5049068;28;19921;-88
2024/02/28 04:04:46;;;;;;;;;;;4.10;1.00;;;;;;5043230;28;20370;-88
2024/02/28 04:07:12;;;;;;;;;;;4.00;1.00;;;;;;5043415;28;20007;-88
2024/02/28 04:09:39;;;;;;;;;;;4.00;1.00;;;;;;5046944;28;19924;-87
2024/02/28 04:12:07;;;;;;;;;;;4.10;1.00;;;;;;5044720;28;20392;-87
2024/02/28 04:14:34;;;;;;;;;;;4.20;1.00;;;;;;5046582;28;19921;-87
2024/02/28 04:17:01;;;;;;;;;;;4.20;1.00;;;;;;5044929;28;19960;-87
2024/02/28 04:19:27;;;;;;;;;;;4.20;1.00;;;;;;5047853;28;19976;-86
2024/02/28 04:21:54;;;;;;;;;;;4.20;1.00;;;;;;5050453;28;19921;-87
2024/02/28 04:24:21;;;;;;;;;;;4.20;1.00;;;;;;5046715;28;19996;-86
2024/02/28 04:26:47;;;;;;;;;;;4.20;1.00;;;;;;5052437;28;20358;-86
2024/02/28 04:29:15;;;;;;;;;;;4.10;1.00;;;;;;5050016;28;19955;-88
2024/02/28 04:31:42;;;;;;;;;;;4.10;1.00;;;;;;5049376;28;19921;-88
2024/02/28 04:34:09;;;;;;;;;;;4.20;1.00;;;;;;5048345;28;19944;-88
2024/02/28 04:36:35;;;;;;;;;;;4.20;1.00;;;;;;5048168;28;19928;-88
2024/02/28 04:39:04;;;;;;;;;;;4.20;1.00;;;;;;5048388;28;19982;-88
2024/02/28 04:41:30;;;;;;;;;;;4.00;1.00;;;;;;5048514;28;19971;-88
2024/02/28 04:43:57;;;;;;;;;;;4.10;1.00;;;;;;5043839;28;20007;-87
2024/02/28 04:46:25;;;;;;;;;;;4.10;1.00;;;;;;5046076;28;19928;-89
2024/02/28 04:48:52;;;;;;;;;;;4.20;1.00;;;;;;5048460;28;19921;-87
2024/02/28 04:51:18;;;;;;;;;;;4.20;1.00;;;;;;5048935;28;19971;-86
2024/02/28 04:53:45;;;;;;;;;;;4.20;1.00;;;;;;5055942;28;19921;-86
2024/02/28 04:56:12;;;;;;;;;;;4.20;1.00;;;;;;5049967;28;19921;-87
2024/02/28 04:58:38;;;;;;;;;;;4.10;99.90;;;;;;5054945;28;19979;-87
2024/02/28 05:01:05;;;;;;;;;;;4.10;1.00;;;;;;5057815;28;19983;-88
2024/02/28 05:03:33;;;;;;;;;;;4.80;99.90;;;;;;5058679;28;19916;-87
2024/02/28 05:06:00;;;;;;;;;;;3.60;99.90;;;;;;5058871;28;19948;-87
2024/02/28 05:08:28;;;;;;;;;;;4.20;99.90;;;;;;5056924;28;19981;-87
2024/02/28 05:10:55;;;;;;;;;;;4.20;99.90;;;;;;5053939;28;19943;-87
2024/02/28 05:13:24;;;;;;;;;;;4.20;99.90;;;;;;5046672;28;19971;-88
2024/02/28 05:15:51;;;;;;;;;;;4.20;99.90;;;;;;5050067;28;19960;-87
2024/02/28 05:18:17;;;;;;;;;;;4.30;99.90;;;;;;5049906;28;19992;-88
2024/02/28 05:20:45;;;;;;;;;;;4.20;99.90;;;;;;5049968;28;19964;-88
2024/02/28 05:23:12;;;;;;;;;;;4.20;99.90;;;;;;5048709;28;19951;-87
2024/02/28 05:25:39;;;;;;;;;;;4.20;99.90;;;;;;5051026;28;19960;-85
2024/02/28 05:28:06;;;;;;;;;;;4.30;99.90;;;;;;5052739;28;19967;-86
2024/02/28 05:30:33;;;;;;;;;;;4.30;99.90;;;;;;5051707;28;19921;-87
2024/02/28 05:32:59;;;;;;;;;;;4.50;99.90;;;;;;5049206;28;19959;-87
2024/02/28 05:35:26;;;;;;;;;;;4.40;99.90;;;;;;5048293;28;19967;-87
2024/02/28 05:37:55;;;;;;;;;;;4.30;99.90;;;;;;5049149;28;19964;-88
2024/02/28 05:40:22;;;;;;;;;;;4.40;99.90;;;;;;5048568;28;19984;-87
2024/02/28 05:42:49;;;;;;;;;;;4.40;99.90;;;;;;5049125;28;19921;-87
2024/02/28 05:45:15;;;;;;;;;;;4.50;99.90;;;;;;5050080;28;19920;-87
2024/02/28 05:47:42;;;;;;;;;;;4.20;99.90;;;;;;5048505;28;20039;-87
2024/02/28 05:50:10;;;;;;;;;;;4.10;99.90;;;;;;5046152;28;19975;-87
2024/02/28 05:52:36;;;;;;;;;;;4.30;99.90;;;;;;5045363;28;20297;-87
2024/02/28 05:55:05;;;;;;;;;;;4.20;99.90;;;;;;5048771;28;19964;-88
2024/02/28 05:57:32;;;;;;;;;;;4.20;99.90;;;;;;5049689;28;19955;-88
2024/02/28 05:59:58;;;;;;;;;;;4.10;99.90;;;;;;5048395;28;19960;-88
2024/02/28 06:02:25;;;;;;;;;;;4.10;99.90;;;;;;5044784;28;19921;-88
2024/02/28 06:04:51;;;;;;;;;;;4.10;99.90;;;;;;5055425;28;19909;-86
2024/02/28 06:07:17;;;;;;;;;;;4.30;99.90;;;;;;5057111;28;19928;-87
2024/02/28 06:09:44;;;;;;;;;;;4.30;99.90;;;;;;5045355;28;20449;-87
2024/02/28 06:12:12;;;;;;;;;;;4.30;99.90;;;;;;5045660;28;19921;-87
2024/02/28 06:14:39;;;;;;;;;;;4.20;96.40;;;;;;5045593;28;19921;-87
2024/02/28 06:17:05;;;;;;;;;;;4.30;99.90;;;;;;5046890;28;19921;-86
2024/02/28 06:19:32;;;;;;;;;;;4.20;99.90;;;;;;5048940;28;19956;-88
2024/02/28 06:21:59;;;;;;;;;;;4.20;99.90;;;;;;5054299;28;19916;-85
2024/02/28 06:24:26;;;;;;;;;;;4.20;99.90;;;;;;5049057;28;19920;-87
2024/02/28 06:26:52;;;;;;;;;;;4.10;99.90;;;;;;5049087;28;19956;-86
2024/02/28 06:29:22;;;;;;;;;;;4.20;99.90;;;;;;5047200;28;19921;-87
2024/02/28 06:31:50;;;;;;;;;;;4.30;99.90;;;;;;5046043;28;19928;-87
2024/02/28 06:34:16;;;;;;;;;;;4.10;99.90;;;;;;5046607;28;20063;-87
2024/02/28 06:36:43;;;;;;;;;;;4.20;99.90;;;;;;5046472;28;19960;-87
2024/02/28 06:39:10;;;;;;;;;;;4.10;99.90;;;;;;5047932;28;19925;-86
2024/02/28 06:41:36;;;;;;;;;;;4.10;99.90;;;;;;5048029;28;19921;-87
2024/02/28 06:44:03;;;;;;;;;;;4.00;99.90;;;;;;5049064;28;19928;-86
2024/02/28 06:46:31;;;;;;;;;;;4.10;99.90;;;;;;5049345;28;19960;-87
2024/02/28 06:48:58;;;;;;;;;;;3.90;99.90;;;;;;5049666;28;19925;-88
2024/02/28 06:51:25;;;;;;;;;;;4.00;99.90;;;;;;5053250;28;19979;-86
2024/02/28 06:53:51;;;;;;;;;;;3.90;99.90;;;;;;5053586;28;19989;-88
2024/02/28 06:56:18;;;;;;;;;;;4.30;99.90;;;;;;5052380;28;19959;-86
2024/02/28 06:58:45;;;;;;;;;;;4.20;99.90;;;;;;5050751;28;19921;-88
2024/02/28 07:01:11;;;;;;;;;;;3.90;99.90;;;;;;5050081;28;19960;-86
2024/02/28 07:03:39;;;;;;;;;;;4.10;1.00;;;;;;5047579;28;20409;-86
2024/02/28 07:06:06;;;;;;;;;;;4.20;99.90;;;;;;5049660;28;20056;-86
2024/02/28 07:08:33;;;;;;;;;;;4.20;99.90;;;;;;5050864;28;19921;-88
2024/02/28 07:11:00;;;;;;;;;;;4.30;99.90;;;;;;5050822;28;19949;-87
2024/02/28 07:13:27;;;;;;;;;;;4.40;99.90;;;;;;5058241;28;19921;-85
2024/02/28 07:15:54;;;;;;;;;;;4.20;99.90;;;;;;5052946;28;19921;-89
2024/02/28 07:18:22;;;;;;;;;;;4.30;99.90;;;;;;5049000;28;19975;-87
2024/02/28 07:20:51;;;;;;;;;;;4.40;99.90;;;;;;5051449;28;19921;-86
2024/02/28 07:23:18;;;;;;;;;;;4.30;99.90;;;;;;5057406;28;19925;-87
2024/02/28 07:25:45;;;;;;;;;;;4.30;99.90;;;;;;5052155;28;19963;-87
2024/02/28 07:28:11;;;;;;;;;;;4.20;99.90;;;;;;5050537;28;19956;-86
2024/02/28 07:30:39;;;;;;;;;;;4.30;99.90;;;;;;5048730;28;19925;-86
2024/02/28 07:33:06;;;;;;;;;;;4.20;99.90;;;;;;5053752;28;19932;-86
2024/02/28 07:35:33;;;;;;;;;;;4.20;99.90;;;;;;5059452;28;19925;-87
2024/02/28 07:38:01;;;;;;;;;;;4.30;99.90;;;;;;5053856;28;19925;-87
2024/02/28 07:40:30;;;;;;;;;;;4.40;99.90;;;;;;5045932;28;19971;-87
2024/02/28 07:42:56;;;;;;;;;;;4.40;99.90;;;;;;5047222;28;19967;-87
2024/02/28 07:45:23;;;;;;;;;;;4.40;99.90;;;;;;5048554;28;19968;-88
2024/02/28 07:47:50;;;;;;;;;;;4.50;99.90;;;;;;5057888;28;19925;-85
2024/02/28 07:50:17;;;;;;;;;;;4.40;99.90;;;;;;5057603;28;19932;-86
2024/02/28 07:52:44;;;;;;;;;;;4.40;99.90;;;;;;5050439;28;19927;-87
2024/02/28 07:55:12;;;;;;;;;;;4.50;99.90;;;;;;5047045;28;19921;-87
2024/02/28 07:57:38;;;;;;;;;;;4.40;99.90;;;;;;5049770;28;19967;-86
2024/02/28 08:00:05;;;;;;;;;;;4.60;99.90;;;;;;5055624;28;19904;-87
2024/02/28 08:02:33;;;;;;;;;;;4.50;99.90;;;;;;5058410;28;19939;-85
2024/02/28 08:05:00;;;;;;;;;;;4.50;99.90;;;;;;5057532;28;19921;-87
2024/02/28 08:07:26;;;;;;;;;;;4.70;99.90;;;;;;5047293;28;19932;-88
2024/02/28 08:09:53;;;;;;;;;;;4.30;99.90;;;;;;5043964;28;19959;-87
2024/02/28 08:12:21;;;;;;;;;;;4.30;99.90;;;;;;5045714;28;19968;-87
2024/02/28 08:14:48;;;;;;;;;;;4.20;99.90;;;;;;5047366;28;19921;-84
2024/02/28 08:17:14;;;;;;;;;;;4.20;99.90;;;;;;5044599;28;19975;-84
2024/02/28 08:19:42;;;;;;;;;;;4.20;95.30;;;;;;5045509;28;19982;-84
2024/02/28 08:22:09;;;;;;;;;;;4.30;99.90;;;;;;5039390;28;19989;-85
2024/02/28 08:24:36;;;;;;;;;;;4.30;24.70;;;;;;5040605;28;19928;-84
2024/02/28 08:27:02;;;;;;;;;;;4.20;65.60;;;;;;5041969;28;19984;-84
2024/02/28 08:29:32;;;;;;;;;;;4.20;80.30;;;;;;5045730;28;19964;-83
2024/02/28 08:31:59;;;;;;;;;;;4.30;79.20;;;;;;5043959;28;19992;-83
2024/02/28 08:34:25;;;;;;;;;;;4.30;1.00;;;;;;5042758;28;19960;-84
2024/02/28 08:36:52;;;;;;;;;;;4.20;1.00;;;;;;5042159;28;19928;-84
2024/02/28 08:39:19;;;;;;;;;;;4.20;1.00;;;;;;5041389;28;20293;-84
2024/02/28 08:41:46;;;;;;;;;;;4.20;1.00;;;;;;5042093;28;19921;-83
2024/02/28 08:44:12;;;;;;;;;;;4.00;1.00;;;;;;5041929;28;19921;-84
2024/02/28 08:46:40;;;;;;;;;;;3.90;1.00;;;;;;5042269;28;20371;-85
2024/02/28 08:49:08;;;;;;;;;;;4.00;1.00;;;;;;5042304;28;20356;-85
2024/02/28 08:51:35;;;;;;;;;;;4.00;1.00;;;;;;5042635;28;19936;-85
2024/02/28 08:54:02;;;;;;;;;;;4.10;1.00;;;;;;5043388;28;19959;-85
2024/02/28 08:56:29;;;;;;;;;;;4.10;1.00;;;;;;5046935;28;20408;-84
2024/02/28 08:58:56;;;;;;;;;;;4.20;1.00;;;;;;5044154;28;19928;-83
2024/02/28 09:01:22;;;;;;;;;;;4.10;1.00;;;;;;5043976;28;19953;-83
2024/02/28 09:03:50;;;;;;;;;;;4.00;1.00;;;;;;5045501;28;19924;-86
2024/02/28 09:06:17;;;;;;;;;;;4.00;1.00;;;;;;5044511;28;19960;-85
2024/02/28 09:08:43;;;;;;;;;;;3.90;1.00;;;;;;5043887;28;19984;-86
2024/02/28 09:11:10;;;;;;;;;;;4.10;1.00;;;;;;5044694;28;19980;-84
2024/02/28 09:13:37;;;;;;;;;;;4.10;1.00;;;;;;5044713;28;19921;-83
2024/02/28 09:16:04;;;;;;;;;;;4.00;1.00;;;;;;5043395;28;20008;-85
2024/02/28 09:18:30;;;;;;;;;;;4.10;1.00;;;;;;5043831;28;19928;-86
2024/02/28 09:20:59;;;;;;;;;;;4.20;1.00;;;;;;5042638;28;19964;-85
2024/02/28 09:23:25;;;;;;;;;;;4.20;99.90;;;;;;5047367;28;19909;-82
2024/02/28 09:25:52;;;;;;;;;;;4.00;99.90;;;;;;5055195;28;19976;-83
2024/02/28 09:28:19;;;;;;;;;;;4.00;1.00;;;;;;5056179;28;19928;-83
2024/02/28 09:30:47;;;;;;;;;;;3.90;1.00;;;;;;5049653;28;19927;-85
2024/02/28 09:33:14;;;;;;;;;;;3.80;1.00;;;;;;5043336;28;20345;-84
2024/02/28 09:35:41;;;;;;;;;;;4.10;1.00;;;;;;5042701;28;20009;-85
2024/02/28 09:38:09;;;;;;;;;;;3.90;1.00;;;;;;5047344;28;19948;-84
2024/02/28 09:40:36;;;;;;;;;;;4.00;1.00;;;;;;5045951;28;19952;-85
2024/02/28 09:43:03;;;;;;;;;;;3.90;99.90;;;;;;5046960;28;19928;-84
2024/02/28 09:45:31;;;;;;;;;;;3.80;1.00;;;;;;5045239;28;19925;-84
2024/02/28 09:48:00;;;;;;;;;;;3.90;1.00;;;;;;5044636;28;19959;-84
2024/02/28 09:50:32;;;;;;;;;;;3.90;1.00;;;;;;5045339;28;19921;-84
2024/02/28 09:52:59;;;;;;;;;;;4.00;1.00;;;;;;5048025;28;19921;-85
2024/02/28 09:55:27;;;;;;;;;;;4.20;99.90;;;;;;5046445;28;19928;-84
2024/02/28 09:57:54;;;;;;;;;;;4.10;99.90;;;;;;5047678;28;19948;-84
2024/02/28 10:00:21;;;;;;;;;;;3.90;1.00;;;;;;5046482;28;19971;-84
2024/02/28 10:02:48;;;;;;;;;;;3.90;1.00;;;;;;5050132;28;19921;-83
2024/02/28 10:05:15;;;;;;;;;;;4.00;1.00;;;;;;5047869;28;19928;-85
2024/02/28 10:07:41;;;;;;;;;;;4.20;1.00;;;;;;5049042;28;19988;-84
2024/02/28 10:10:09;;;;;;;;;;;4.20;1.00;;;;;;5051519;28;19928;-85
2024/02/28 10:12:37;;;;;;;;;;;4.10;99.90;;;;;;5048872;28;19921;-85
2024/02/28 10:15:04;;;;;;;;;;;4.00;1.00;;;;;;5047968;28;19932;-85
2024/02/28 10:17:31;;;;;;;;;;;4.10;99.90;;;;;;5050056;28;19921;-83
2024/02/28 10:19:59;;;;;;;;;;;3.90;99.90;;;;;;5059823;28;19920;-83
2024/02/28 10:22:26;;;;;;;;;;;4.10;99.90;;;;;;5059303;28;19940;-84
2024/02/28 10:24:57;;;;;;;;;;;4.20;99.90;;;;;;5055412;28;19921;-86
2024/02/28 10:27:24;;;;;;;;;;;4.10;99.90;;;;;;5049858;28;19921;-86
2024/02/28 10:29:52;;;;;;;;;;;4.30;99.90;;;;;;5049807;28;19959;-85
2024/02/28 10:32:18;;;;;;;;;;;4.20;99.90;;;;;;5050034;28;20044;-86
2024/02/28 10:34:46;;;;;;;;;;;4.30;99.90;;;;;;5047467;28;19921;-85
2024/02/28 10:37:13;;;;;;;;;;;4.30;99.90;;;;;;5049242;28;20302;-83
2024/02/28 10:39:40;;;;;;;;;;;4.40;99.90;;;;;;5050936;28;20076;-85
2024/02/28 10:42:08;;;;;;;;;;;4.60;99.90;;;;;;5050190;28;19928;-85
2024/02/28 10:44:36;;;;;;;;;;;4.30;99.90;;;;;;5046963;28;19980;-85
2024/02/28 10:47:04;;;;;;;;;;;4.40;99.90;;;;;;5047025;28;19928;-85
2024/02/28 10:49:31;;;;;;;;;;;4.30;99.90;;;;;;5046411;28;19925;-85
2024/02/28 10:51:58;;;;;;;;;;;4.50;99.90;;;;;;5046310;28;19960;-85
2024/02/28 10:54:25;;;;;;;;;;;4.10;99.90;;;;;;5044374;28;19975;-83
2024/02/28 10:56:52;;;;;;;;;;;4.20;99.90;;;;;;5045798;28;19928;-86
2024/02/28 10:59:20;;;;;;;;;;;4.30;99.90;;;;;;5045317;28;19928;-82
2024/02/28 11:01:47;;;;;;;;;;;4.30;99.90;;;;;;5044602;28;19988;-83
2024/02/28 11:04:17;;;;;;;;;;;4.30;99.90;;;;;;5044027;28;19921;-84
2024/02/28 11:06:51;;;;;;;;;;;4.60;99.90;;;;;;5047760;28;19971;-85
2024/02/28 11:09:22;;;;;;;;;;;4.20;99.90;;;;;;5044890;28;19927;-85
2024/02/28 11:11:50;;;;;;;;;;;4.20;99.90;;;;;;5047086;28;19921;-83
2024/02/28 11:14:17;;;;;;;;;;;4.40;99.90;;;;;;5049739;28;19921;-88
2024/02/28 11:16:46;;;;;;;;;;;4.50;73.40;;;;;;5050147;28;19981;-85
2024/02/28 11:19:22;;;;;;;;;;;4.70;42.50;;;;;;5043752;28;19921;-86
2024/02/28 11:21:54;;;;;;;;;;;4.60;1.00;;;;;;5042148;28;19968;-85
2024/02/28 11:24:23;;;;;;;;;;;4.50;27.50;;;;;;5042594;28;19964;-84
2024/02/28 11:26:50;;;;;;;;;;;4.40;1.00;;;;;;5047133;28;19963;-83
2024/02/28 11:29:17;;;;;;;;;;;4.50;1.00;;;;;;5043195;28;19973;-85
2024/02/28 11:31:46;;;;;;;;;;;4.60;1.00;;;;;;5041873;28;19956;-82
2024/02/28 11:34:13;;;;;;;;;;;4.60;1.00;;;;;;5051931;28;19979;-80
2024/02/28 11:36:41;;;;;;;;;;;4.70;1.00;;;;;;5055067;28;19943;-80
2024/02/28 11:39:08;;;;;;;;;;;4.90;1.00;;;;;;5052060;28;19940;-80
2024/02/28 11:41:34;;;;;;;;;;;4.80;99.90;;;;;;5055048;28;19986;-80
2024/02/28 11:44:01;;;;;;;;;;;4.70;99.90;;;;;;5042574;28;20357;-83
2024/02/28 11:46:27;;;;;;;;;;;4.70;99.90;;;;;;5041122;28;19973;-83
2024/02/28 11:48:55;;;;;;;;;;;4.80;93.90;;;;;;5039694;28;20034;-83
2024/02/28 11:51:21;;;;;;;;;;;4.70;1.00;;;;;;5042873;28;19964;-79
2024/02/28 11:53:50;;;;;;;;;;;4.80;44.10;;;;;;5048000;28;20029;-80
2024/02/28 11:56:18;;;;;;;;;;;4.70;1.00;;;;;;5047785;28;19983;-82
2024/02/28 11:58:50;;;;;;;;;;;4.70;1.00;;;;;;5040735;28;19946;-83
2024/02/28 12:01:16;;;;;;;;;;;4.90;1.00;;;;;;5041240;28;20039;-82
2024/02/28 12:03:45;;;;;;;;;;;5.00;99.90;;;;;;5040636;28;19940;-81
2024/02/28 12:06:12;;;;;;;;;;;4.80;99.90;;;;;;5041070;28;19940;-82
2024/02/28 12:08:39;;;;;;;;;;;4.80;1.00;;;;;;5040881;28;19928;-83
2024/02/28 12:11:10;;;;;;;;;;;4.60;1.00;;;;;;5041047;28;19920;-83
2024/02/28 12:13:38;;;;;;;;;;;4.70;1.00;;;;;;5042125;28;19949;-82
2024/02/28 12:16:05;;;;;;;;;;;4.80;1.00;;;;;;5041205;28;19939;-81
2024/02/28 12:18:31;;;;;;;;;;;4.70;1.00;;;;;;5041203;28;20011;-83
2024/02/28 12:20:58;;;;;;;;;;;4.60;1.00;;;;;;5041804;28;20452;-83
2024/02/28 12:23:25;;;;;;;;;;;4.70;1.00;;;;;;5040025;28;19964;-83
2024/02/28 12:25:51;;;;;;;;;;;4.70;1.00;;;;;;5040798;28;20067;-82
2024/02/28 12:28:19;;;;;;;;;;;4.80;99.90;;;;;;5040748;28;19984;-82
2024/02/28 12:30:46;;;;;;;;;;;4.80;99.90;;;;;;5039140;28;20015;-81
2024/02/28 12:33:13;;;;;;;;;;;4.80;99.90;;;;;;5036496;28;19966;-82
2024/02/28 12:35:41;;;;;;;;;;;4.70;99.90;;;;;;5036352;28;20037;-82
2024/02/28 12:38:08;;;;;;;;;;;4.90;99.90;;;;;;5036848;28;19941;-81
2024/02/28 12:40:34;;;;;;;;;;;4.90;99.90;;;;;;5038716;28;20487;-82
2024/02/28 12:43:01;;;;;;;;;;;4.80;99.90;;;;;;5043725;28;19935;-79
2024/02/28 12:45:29;;;;;;;;;;;4.70;99.90;;;;;;5051617;28;19973;-80
2024/02/28 12:47:57;;;;;;;;;;;4.80;99.90;;;;;;5044948;28;19951;-82
2024/02/28 12:50:24;;;;;;;;;;;5.00;99.90;;;;;;5040025;28;19921;-82
2024/02/28 12:52:53;;;;;;;;;;;5.00;99.90;;;;;;5042095;28;20008;-82
2024/02/28 12:55:20;;;;;;;;;;;4.90;99.90;;;;;;5040786;28;20366;-83
2024/02/28 12:57:46;;;;;;;;;;;5.10;99.90;;;;;;5040071;28;19976;-82
2024/02/28 13:00:14;;;;;;;;;;;4.80;99.90;;;;;;5039356;28;19921;-82
2024/02/28 13:02:42;;;;;;;;;;;4.90;99.90;;;;;;5039629;28;19991;-83
2024/02/28 13:05:09;;;;;;;;;;;4.90;99.90;;;;;;5038838;28;20046;-82
2024/02/28 13:07:36;;;;;;;;;;;4.90;99.90;;;;;;5039199;28;19976;-82
2024/02/28 13:10:04;;;;;;;;;;;5.00;99.90;;;;;;5038908;28;19968;-81
2024/02/28 13:12:32;;;;;;;;;;;5.00;99.90;;;;;;5040320;28;20410;-82
2024/02/28 13:14:58;;;;;;;;;;;4.90;99.90;;;;;;5039226;28;19936;-81
2024/02/28 13:17:25;;;;;;;;;;;4.80;99.90;;;;;;5039592;28;19986;-82
2024/02/28 13:19:53;;;;;;;;;;;4.80;99.90;;;;;;5040132;28;19963;-83
2024/02/28 13:22:20;;;;;;;;;;;5.00;99.90;;;;;;5039692;28;20041;-83
2024/02/28 13:24:46;;;;;;;;;;;5.10;99.90;;;;;;5040462;28;20015;-82
2024/02/28 13:27:13;;;;;;;;;;;4.90;99.90;;;;;;5055100;28;19948;-80
2024/02/28 13:29:40;;;;;;;;;;;4.80;99.90;;;;;;5051920;28;20044;-79
2024/02/28 13:32:07;;;;;;;;;;;4.90;99.90;;;;;;5040728;28;20046;-80
2024/02/28 13:34:33;;;;;;;;;;;4.90;99.90;;;;;;5042622;28;19974;-81
2024/02/28 13:37:01;;;;;;;;;;;5.00;99.90;;;;;;5045052;28;20035;-82
2024/02/28 13:39:29;;;;;;;;;;;5.00;99.90;;;;;;5044090;28;20373;-83
2024/02/28 13:41:56;;;;;;;;;;;4.90;99.90;;;;;;5043773;28;19928;-82
2024/02/28 13:44:23;;;;;;;;;;;5.10;99.90;;;;;;5044354;28;19949;-80
2024/02/28 13:46:50;;;;;;;;;;;5.10;99.90;;;;;;5046332;28;19993;-80
2024/02/28 13:49:18;;;;;;;;;;;5.00;59.10;;;;;;5050973;28;20018;-81
2024/02/28 13:51:46;;;;;;;;;;;5.00;99.90;;;;;;5055400;28;19962;-79
2024/02/28 13:54:14;;;;;;;;;;;5.30;1.00;;;;;;5058289;28;19925;-81
2024/02/28 13:56:40;;;;;;;;;;;5.40;1.00;;;;;;5053373;28;20030;-83
2024/02/28 13:59:07;;;;;;;;;;;5.40;1.00;;;;;;5045931;28;19984;-84
2024/02/28 14:01:34;;;;;;;;;;;5.40;1.00;;;;;;5046397;28;19932;-80
2024/02/28 14:04:00;;;;;;;;;;;5.10;1.00;;;;;;5049671;28;20010;-82
2024/02/28 14:06:26;;;;;;;;;;;5.00;1.00;;;;;;5044211;28;19984;-83
2024/02/28 14:08:53;;;;;;;;;;;4.70;77.70;;;;;;5044213;28;19994;-82
2024/02/28 14:11:21;;;;;;;;;;;4.90;99.90;;;;;;5043051;28;19957;-82
2024/02/28 14:13:48;;;;;;;;;;;4.80;99.90;;;;;;5042974;28;19976;-83
2024/02/28 14:16:14;;;;;;;;;;;5.00;99.90;;;;;;5048407;28;19980;-81
2024/02/28 14:18:41;;;;;;;;;;;4.90;99.90;;;;;;5055090;28;19948;-83
2024/02/28 14:21:08;;;;;;;;;;;5.20;99.90;;;;;;5045034;28;20051;-84
2024/02/28 14:23:35;;;;;;;;;;;5.10;13.70;;;;;;5044406;28;20036;-82
2024/02/28 14:26:03;;;;;;;;;;;5.10;59.70;;;;;;5048030;28;20465;-83
2024/02/28 14:28:31;;;;;;;;;;;5.10;32.60;;;;;;5044337;28;19932;-82
2024/02/28 14:30:58;;;;;;;;;;;5.20;1.00;;;;;;5044022;28;19963;-82
2024/02/28 14:33:24;;;;;;;;;;;5.10;1.00;;;;;;5025658;28;19946;-82
2024/02/28 14:35:51;;;;;;;;;;;5.10;1.00;;;;;;5043664;28;19987;-82
2024/02/28 14:38:18;;;;;;;;;;;5.10;1.00;;;;;;5042324;28;19984;-83
2024/02/28 14:40:44;;;;;;;;;;;5.10;1.00;;;;;;5043262;28;20022;-82
2024/02/28 14:43:11;;;;;;;;;;;5.30;1.00;;;;;;5044521;28;19940;-83
2024/02/28 14:45:39;;;;;;;;;;;5.20;1.00;;;;;;5044485;28;20032;-83
2024/02/28 14:48:07;;;;;;;;;;;5.10;1.00;;;;;;5053163;28;19967;-81
2024/02/28 14:50:33;;;;;;;;;;;5.00;1.00;;;;;;5053325;28;19958;-80
2024/02/28 14:53:00;;;;;;;;;;;4.80;1.00;;;;;;5048376;28;19989;-82
2024/02/28 14:55:27;;;;;;;;;;;4.80;1.00;;;;;;5046246;28;19999;-80
2024/02/28 14:57:53;;;;;;;;;;;4.90;1.00;;;;;;5057298;28;19940;-80
2024/02/28 15:00:21;;;;;;;;;;;4.90;1.00;;;;;;5056858;28;19905;-83
2024/02/28 15:02:53;;;;;;;;;;;5.00;2.20;;;;;;5056696;28;19946;-81
2024/02/28 15:05:20;;;;;;;;;;;5.00;1.00;;;;;;5056501;28;20034;-83
2024/02/28 15:07:46;;;;;;;;;;;5.00;13.10;;;;;;5050390;28;19973;-84
2024/02/28 15:10:14;;;;;;;;;;;5.10;1.00;;;;;;5045957;28;20039;-81
2024/02/28 15:12:40;;;;;;;;;;;4.90;1.00;;;;;;5046961;28;19974;-82
2024/02/28 15:15:08;;;;;;;;;;;4.90;1.00;;;;;;5046419;28;20324;-83
2024/02/28 15:17:34;;;;;;;;;;;4.90;14.20;;;;;;5046252;28;19941;-82
2024/02/28 15:20:03;;;;;;;;;;;5.00;1.00;;;;;;5046247;28;19955;-84
2024/02/28 15:22:30;;;;;;;;;;;5.10;37.30;;;;;;5044629;28;20049;-84
2024/02/28 15:24:57;;;;;;;;;;;5.20;1.00;;;;;;5041830;28;20406;-82
2024/02/28 15:27:23;;;;;;;;;;;5.10;1.00;;;;;;5040892;28;19921;-81
2024/02/28 15:29:51;;;;;;;;;;;5.20;4.80;;;;;;5040930;28;19921;-82
2024/02/28 15:32:17;;;;;;;;;;;5.10;1.00;;;;;;5041797;28;19955;-83